sensor_id;sensor_type;location;lat;lon;timestamp;temperature;humidity
12849;DHT22;6493;50.928;7.172;2023-04-03T00:01:56;0.80;56.40
12849;DHT22;6493;50.928;7.172;2023-04-03T00:07:00;0.80;56.40
12849;DHT22;6493;50.928;7.172;2023-04-03T00:12:03;0.80;56.40
12849;DHT22;6493;50.928;7.172;2023-04-03T00:17:07;0.80;56.50
12849;DHT22;6493;50.928;7.172;2023-04-03T00:22:11;0.70;56.40
12849;DHT22;6493;50.928;7.172;2023-04-03T00:27:14;0.70;56.40
12849;DHT22;6493;50.928;7.172;2023-04-03T00:32:18;0.70;56.40
12849;DHT22;6493;50.928;7.172;2023-04-03T00:37:22;0.60;56.40
12849;DHT22;6493;50.928;7.172;2023-04-03T00:42:25;0.50;56.50
12849;DHT22;6493;50.928;7.172;2023-04-03T00:47:30;0.40;56.40
12849;DHT22;6493;50.928;7.172;2023-04-03T00:52:34;0.30;56.40
12849;DHT22;6493;50.928;7.172;2023-04-03T00:57:37;0.30;56.40
12849;DHT22;6493;50.928;7.172;2023-04-03T01:02:43;0.20;56.40
12849;DHT22;6493;50.928;7.172;2023-04-03T01:07:49;0.10;56.50
12849;DHT22;6493;50.928;7.172;2023-04-03T01:12:54;0.10;56.60
12849;DHT22;6493;50.928;7.172;2023-04-03T01:17:59;0.10;56.60
12849;DHT22;6493;50.928;7.172;2023-04-03T01:23:11;0.00;56.60
12849;DHT22;6493;50.928;7.172;2023-04-03T01:28:18;0.00;56.60
12849;DHT22;6493;50.928;7.172;2023-04-03T01:33:23;0.00;56.60
12849;DHT22;6493;50.928;7.172;2023-04-03T01:38:29;0.00;56.60
12849;DHT22;6493;50.928;7.172;2023-04-03T01:43:32;-0.10;56.60
12849;DHT22;6493;50.928;7.172;2023-04-03T01:48:37;-0.10;56.60
12849;DHT22;6493;50.928;7.172;2023-04-03T01:53:40;-0.20;56.50
12849;DHT22;6493;50.928;7.172;2023-04-03T01:58:43;-0.20;56.60
12849;DHT22;6493;50.928;7.172;2023-04-03T02:03:48;-0.30;56.50
12849;DHT22;6493;50.928;7.172;2023-04-03T02:08:52;-0.30;56.60
12849;DHT22;6493;50.928;7.172;2023-04-03T02:13:55;-0.40;56.50
12849;DHT22;6493;50.928;7.172;2023-04-03T02:19:00;-0.40;56.60
12849;DHT22;6493;50.928;7.172;2023-04-03T02:24:05;-0.50;56.50
12849;DHT22;6493;50.928;7.172;2023-04-03T02:29:09;-0.60;56.60
12849;DHT22;6493;50.928;7.172;2023-04-03T02:34:13;-0.60;56.60
12849;DHT22;6493;50.928;7.172;2023-04-03T02:39:17;-0.60;56.70
12849;DHT22;6493;50.928;7.172;2023-04-03T02:44:21;-0.70;56.70
12849;DHT22;6493;50.928;7.172;2023-04-03T02:49:28;-0.70;56.80
12849;DHT22;6493;50.928;7.172;2023-04-03T02:54:31;-0.80;56.70
12849;DHT22;6493;50.928;7.172;2023-04-03T02:59:38;-0.80;56.70
12849;DHT22;6493;50.928;7.172;2023-04-03T03:04:45;-0.80;56.70
12849;DHT22;6493;50.928;7.172;2023-04-03T03:09:49;-0.90;56.70
12849;DHT22;6493;50.928;7.172;2023-04-03T03:14:52;-0.90;56.70
12849;DHT22;6493;50.928;7.172;2023-04-03T03:19:57;-1.00;56.70
12849;DHT22;6493;50.928;7.172;2023-04-03T03:25:01;-1.00;56.80
12849;DHT22;6493;50.928;7.172;2023-04-03T03:30:06;-1.10;56.70
12849;DHT22;6493;50.928;7.172;2023-04-03T03:35:11;-1.10;56.80
12849;DHT22;6493;50.928;7.172;2023-04-03T03:40:15;-1.20;56.80
12849;DHT22;6493;50.928;7.172;2023-04-03T03:45:19;-1.20;56.80
12849;DHT22;6493;50.928;7.172;2023-04-03T03:50:24;-1.30;56.80
12849;DHT22;6493;50.928;7.172;2023-04-03T03:55:28;-1.40;56.80
12849;DHT22;6493;50.928;7.172;2023-04-03T04:00:33;-1.50;56.70
12849;DHT22;6493;50.928;7.172;2023-04-03T04:05:38;-1.50;56.80
12849;DHT22;6493;50.928;7.172;2023-04-03T04:10:41;-1.50;56.90
12849;DHT22;6493;50.928;7.172;2023-04-03T04:15:48;-1.60;56.90
12849;DHT22;6493;50.928;7.172;2023-04-03T04:20:53;-1.60;57.00
12849;DHT22;6493;50.928;7.172;2023-04-03T04:25:57;-1.70;57.00
12849;DHT22;6493;50.928;7.172;2023-04-03T04:31:03;-1.70;57.00
12849;DHT22;6493;50.928;7.172;2023-04-03T04:36:08;-1.80;57.00
12849;DHT22;6493;50.928;7.172;2023-04-03T04:41:12;-1.80;57.10
12849;DHT22;6493;50.928;7.172;2023-04-03T04:46:17;-1.90;57.10
12849;DHT22;6493;50.928;7.172;2023-04-03T04:51:28;-2.00;57.10
12849;DHT22;6493;50.928;7.172;2023-04-03T04:56:43;-2.00;57.20
12849;DHT22;6493;50.928;7.172;2023-04-03T05:01:46;-2.00;57.20
12849;DHT22;6493;50.928;7.172;2023-04-03T05:06:52;-2.10;57.20
12849;DHT22;6493;50.928;7.172;2023-04-03T05:11:59;-2.10;57.40
12849;DHT22;6493;50.928;7.172;2023-04-03T05:17:07;-2.10;57.30
12849;DHT22;6493;50.928;7.172;2023-04-03T05:22:15;-2.20;57.90
12849;DHT22;6493;50.928;7.172;2023-04-03T05:27:19;-2.10;57.40
12849;DHT22;6493;50.928;7.172;2023-04-03T05:32:27;-2.10;57.70
12849;DHT22;6493;50.928;7.172;2023-04-03T05:37:51;-2.10;58.00
12849;DHT22;6493;50.928;7.172;2023-04-03T05:42:54;-1.80;58.60
12849;DHT22;6493;50.928;7.172;2023-04-03T05:47:59;-1.50;59.00
12849;DHT22;6493;50.928;7.172;2023-04-03T05:53:05;-1.10;58.90
12849;DHT22;6493;50.928;7.172;2023-04-03T05:58:09;-0.80;58.50
12849;DHT22;6493;50.928;7.172;2023-04-03T06:03:13;-0.60;58.20
12849;DHT22;6493;50.928;7.172;2023-04-03T06:08:19;-0.50;58.00
12849;DHT22;6493;50.928;7.172;2023-04-03T06:13:22;-0.40;57.70
12849;DHT22;6493;50.928;7.172;2023-04-03T06:18:25;-0.40;57.70
12849;DHT22;6493;50.928;7.172;2023-04-03T06:23:31;-0.40;57.40
12849;DHT22;6493;50.928;7.172;2023-04-03T06:28:34;-0.30;57.40
12849;DHT22;6493;50.928;7.172;2023-04-03T06:33:37;-0.30;57.60
12849;DHT22;6493;50.928;7.172;2023-04-03T06:38:42;-0.10;57.80
12849;DHT22;6493;50.928;7.172;2023-04-03T06:43:45;0.20;58.10
12849;DHT22;6493;50.928;7.172;2023-04-03T06:48:49;0.40;58.20
12849;DHT22;6493;50.928;7.172;2023-04-03T06:53:57;0.70;58.30
12849;DHT22;6493;50.928;7.172;2023-04-03T06:59:00;1.00;58.10
12849;DHT22;6493;50.928;7.172;2023-04-03T07:04:04;1.20;57.30
12849;DHT22;6493;50.928;7.172;2023-04-03T07:09:09;1.50;58.20
12849;DHT22;6493;50.928;7.172;2023-04-03T07:14:12;1.90;57.90
12849;DHT22;6493;50.928;7.172;2023-04-03T07:19:15;2.50;56.80
12849;DHT22;6493;50.928;7.172;2023-04-03T07:24:21;2.90;56.80
12849;DHT22;6493;50.928;7.172;2023-04-03T07:29:24;3.00;54.00
12849;DHT22;6493;50.928;7.172;2023-04-03T07:34:27;3.10;54.90
12849;DHT22;6493;50.928;7.172;2023-04-03T07:39:32;3.10;53.90
12849;DHT22;6493;50.928;7.172;2023-04-03T07:44:35;3.10;52.70
12849;DHT22;6493;50.928;7.172;2023-04-03T07:49:38;3.30;54.10
12849;DHT22;6493;50.928;7.172;2023-04-03T07:54:44;3.70;54.50
12849;DHT22;6493;50.928;7.172;2023-04-03T07:59:47;4.20;52.10
12849;DHT22;6493;50.928;7.172;2023-04-03T08:04:50;4.40;51.00
12849;DHT22;6493;50.928;7.172;2023-04-03T08:09:55;4.70;51.20
12849;DHT22;6493;50.928;7.172;2023-04-03T08:14:59;5.10;51.90
12849;DHT22;6493;50.928;7.172;2023-04-03T08:20:04;5.40;51.60
12849;DHT22;6493;50.928;7.172;2023-04-03T08:25:10;5.70;52.90
12849;DHT22;6493;50.928;7.172;2023-04-03T08:30:13;5.80;48.80
12849;DHT22;6493;50.928;7.172;2023-04-03T08:35:17;5.80;49.30
12849;DHT22;6493;50.928;7.172;2023-04-03T08:40:23;5.70;49.20
12849;DHT22;6493;50.928;7.172;2023-04-03T08:45:33;5.60;48.50
12849;DHT22;6493;50.928;7.172;2023-04-03T08:50:41;5.40;48.20
12849;DHT22;6493;50.928;7.172;2023-04-03T08:55:49;5.20;47.80
12849;DHT22;6493;50.928;7.172;2023-04-03T09:00:56;5.10;49.30
12849;DHT22;6493;50.928;7.172;2023-04-03T09:06:03;5.10;48.20
12849;DHT22;6493;50.928;7.172;2023-04-03T09:11:16;5.10;43.50
12849;DHT22;6493;50.928;7.172;2023-04-03T09:16:30;4.90;43.00
12849;DHT22;6493;50.928;7.172;2023-04-03T09:21:38;4.90;43.50
12849;DHT22;6493;50.928;7.172;2023-04-03T09:26:48;4.80;43.40
12849;DHT22;6493;50.928;7.172;2023-04-03T09:31:58;4.70;43.30
12849;DHT22;6493;50.928;7.172;2023-04-03T09:37:04;4.70;41.70
12849;DHT22;6493;50.928;7.172;2023-04-03T09:42:16;4.80;44.30
12849;DHT22;6493;50.928;7.172;2023-04-03T09:47:24;4.80;41.80
12849;DHT22;6493;50.928;7.172;2023-04-03T09:52:28;5.00;43.70
12849;DHT22;6493;50.928;7.172;2023-04-03T09:57:34;5.00;41.90
12849;DHT22;6493;50.928;7.172;2023-04-03T10:02:39;5.20;40.90
12849;DHT22;6493;50.928;7.172;2023-04-03T10:07:42;5.20;39.70
12849;DHT22;6493;50.928;7.172;2023-04-03T10:13:09;5.10;38.50
12849;DHT22;6493;50.928;7.172;2023-04-03T10:18:31;5.10;37.30
12849;DHT22;6493;50.928;7.172;2023-04-03T10:23:41;5.10;39.10
12849;DHT22;6493;50.928;7.172;2023-04-03T10:28:53;5.10;37.90
12849;DHT22;6493;50.928;7.172;2023-04-03T10:34:03;5.20;37.70
12849;DHT22;6493;50.928;7.172;2023-04-03T10:39:16;5.20;39.80
12849;DHT22;6493;50.928;7.172;2023-04-03T10:44:31;5.40;37.80
12849;DHT22;6493;50.928;7.172;2023-04-03T10:49:48;5.50;36.80
12849;DHT22;6493;50.928;7.172;2023-04-03T10:55:09;5.70;38.10
12849;DHT22;6493;50.928;7.172;2023-04-03T11:00:21;5.80;35.50
12849;DHT22;6493;50.928;7.172;2023-04-03T11:05:29;5.80;34.30
12849;DHT22;6493;50.928;7.172;2023-04-03T11:10:37;5.90;37.30
12849;DHT22;6493;50.928;7.172;2023-04-03T11:15:44;6.00;36.80
12849;DHT22;6493;50.928;7.172;2023-04-03T11:20:56;6.10;35.50
12849;DHT22;6493;50.928;7.172;2023-04-03T11:26:09;6.30;38.60
12849;DHT22;6493;50.928;7.172;2023-04-03T11:31:27;6.40;34.20
12849;DHT22;6493;50.928;7.172;2023-04-03T11:36:38;6.50;37.30
12849;DHT22;6493;50.928;7.172;2023-04-03T11:41:42;6.60;36.60
12849;DHT22;6493;50.928;7.172;2023-04-03T11:46:51;6.70;33.00
12849;DHT22;6493;50.928;7.172;2023-04-03T11:51:58;6.70;35.00
12849;DHT22;6493;50.928;7.172;2023-04-03T11:57:32;6.70;34.30
12849;DHT22;6493;50.928;7.172;2023-04-03T12:02:47;6.70;33.40
12849;DHT22;6493;50.928;7.172;2023-04-03T12:08:23;6.70;34.50
12849;DHT22;6493;50.928;7.172;2023-04-03T12:13:28;6.70;35.30
12849;DHT22;6493;50.928;7.172;2023-04-03T12:18:44;6.80;35.90
12849;DHT22;6493;50.928;7.172;2023-04-03T12:24:00;6.90;34.60
12849;DHT22;6493;50.928;7.172;2023-04-03T12:29:15;7.00;36.00
12849;DHT22;6493;50.928;7.172;2023-04-03T12:34:36;7.00;36.10
12849;DHT22;6493;50.928;7.172;2023-04-03T12:39:55;7.10;37.40
12849;DHT22;6493;50.928;7.172;2023-04-03T12:45:09;7.30;38.30
12849;DHT22;6493;50.928;7.172;2023-04-03T12:50:22;7.40;39.50
12849;DHT22;6493;50.928;7.172;2023-04-03T12:55:27;7.60;39.90
12849;DHT22;6493;50.928;7.172;2023-04-03T13:00:32;7.80;39.80
12849;DHT22;6493;50.928;7.172;2023-04-03T13:05:38;7.90;37.40
12849;DHT22;6493;50.928;7.172;2023-04-03T13:10:53;8.00;39.70
12849;DHT22;6493;50.928;7.172;2023-04-03T13:15:58;7.90;35.50
12849;DHT22;6493;50.928;7.172;2023-04-03T13:21:06;7.90;35.90
12849;DHT22;6493;50.928;7.172;2023-04-03T13:26:11;7.90;35.90
12849;DHT22;6493;50.928;7.172;2023-04-03T13:31:19;7.80;35.80
12849;DHT22;6493;50.928;7.172;2023-04-03T13:36:30;7.80;38.00
12849;DHT22;6493;50.928;7.172;2023-04-03T13:41:36;7.70;35.20
12849;DHT22;6493;50.928;7.172;2023-04-03T13:46:39;7.60;34.40
12849;DHT22;6493;50.928;7.172;2023-04-03T13:51:44;7.50;34.60
12849;DHT22;6493;50.928;7.172;2023-04-03T13:57:00;7.40;38.00
12849;DHT22;6493;50.928;7.172;2023-04-03T14:02:14;7.40;37.60
12849;DHT22;6493;50.928;7.172;2023-04-03T14:07:19;7.40;36.30
12849;DHT22;6493;50.928;7.172;2023-04-03T14:12:26;7.50;38.10
12849;DHT22;6493;50.928;7.172;2023-04-03T14:18:44;7.50;35.20
12849;DHT22;6493;50.928;7.172;2023-04-03T14:25:21;7.60;37.40
12849;DHT22;6493;50.928;7.172;2023-04-03T14:31:58;7.50;38.10
12849;DHT22;6493;50.928;7.172;2023-04-03T14:38:34;7.60;37.00
12849;DHT22;6493;50.928;7.172;2023-04-03T14:45:12;7.60;39.40
12849;DHT22;6493;50.928;7.172;2023-04-03T14:51:49;7.50;35.80
12849;DHT22;6493;50.928;7.172;2023-04-03T14:58:26;7.40;35.00
12849;DHT22;6493;50.928;7.172;2023-04-03T15:05:06;7.30;36.20
12849;DHT22;6493;50.928;7.172;2023-04-03T15:11:44;7.20;37.80
12849;DHT22;6493;50.928;7.172;2023-04-03T15:18:22;7.10;35.70
12849;DHT22;6493;50.928;7.172;2023-04-03T15:25:01;7.00;34.60
12849;DHT22;6493;50.928;7.172;2023-04-03T15:31:38;6.80;36.60
12849;DHT22;6493;50.928;7.172;2023-04-03T15:38:14;6.70;37.20
12849;DHT22;6493;50.928;7.172;2023-04-03T15:44:52;6.60;36.20
12849;DHT22;6493;50.928;7.172;2023-04-03T15:51:29;6.60;35.80
12849;DHT22;6493;50.928;7.172;2023-04-03T15:58:06;6.50;37.50
12849;DHT22;6493;50.928;7.172;2023-04-03T16:04:45;6.60;38.00
12849;DHT22;6493;50.928;7.172;2023-04-03T16:11:22;6.60;38.20
12849;DHT22;6493;50.928;7.172;2023-04-03T16:17:59;6.50;37.10
12849;DHT22;6493;50.928;7.172;2023-04-03T16:24:37;6.50;38.10
12849;DHT22;6493;50.928;7.172;2023-04-03T16:31:14;6.40;38.10
12849;DHT22;6493;50.928;7.172;2023-04-03T16:37:51;6.30;37.90
12849;DHT22;6493;50.928;7.172;2023-04-03T16:44:28;6.20;37.30
12849;DHT22;6493;50.928;7.172;2023-04-03T16:51:05;6.10;37.80
12849;DHT22;6493;50.928;7.172;2023-04-03T16:57:41;5.90;37.00
12849;DHT22;6493;50.928;7.172;2023-04-03T17:04:19;5.80;37.80
12849;DHT22;6493;50.928;7.172;2023-04-03T17:10:57;5.60;37.40
12849;DHT22;6493;50.928;7.172;2023-04-03T17:17:34;5.50;38.70
12849;DHT22;6493;50.928;7.172;2023-04-03T17:24:13;5.50;38.80
12849;DHT22;6493;50.928;7.172;2023-04-03T17:30:50;5.40;37.90
12849;DHT22;6493;50.928;7.172;2023-04-03T17:37:28;5.20;38.20
12849;DHT22;6493;50.928;7.172;2023-04-03T17:44:06;5.10;38.10
12849;DHT22;6493;50.928;7.172;2023-04-03T17:50:42;5.00;38.60
12849;DHT22;6493;50.928;7.172;2023-04-03T17:57:19;4.90;38.80
12849;DHT22;6493;50.928;7.172;2023-04-03T18:04:00;4.70;39.10
12849;DHT22;6493;50.928;7.172;2023-04-03T18:10:37;4.70;39.20
12849;DHT22;6493;50.928;7.172;2023-04-03T18:17:15;4.60;39.10
12849;DHT22;6493;50.928;7.172;2023-04-03T18:23:54;4.50;38.30
12849;DHT22;6493;50.928;7.172;2023-04-03T18:30:30;4.20;38.30
12849;DHT22;6493;50.928;7.172;2023-04-03T18:37:07;4.00;38.40
12849;DHT22;6493;50.928;7.172;2023-04-03T18:43:45;3.80;38.50
12849;DHT22;6493;50.928;7.172;2023-04-03T18:50:22;3.60;39.10
12849;DHT22;6493;50.928;7.172;2023-04-03T18:56:58;3.50;39.50
12849;DHT22;6493;50.928;7.172;2023-04-03T19:03:36;3.30;39.30
12849;DHT22;6493;50.928;7.172;2023-04-03T19:10:13;3.20;39.20
12849;DHT22;6493;50.928;7.172;2023-04-03T19:16:50;3.00;39.80
12849;DHT22;6493;50.928;7.172;2023-04-03T19:23:27;2.90;39.50
12849;DHT22;6493;50.928;7.172;2023-04-03T19:30:05;2.80;39.90
12849;DHT22;6493;50.928;7.172;2023-04-03T19:36:43;2.70;39.90
12849;DHT22;6493;50.928;7.172;2023-04-03T19:43:20;2.60;39.90
12849;DHT22;6493;50.928;7.172;2023-04-03T19:49:57;2.50;40.20
12849;DHT22;6493;50.928;7.172;2023-04-03T19:56:33;2.30;40.10
12849;DHT22;6493;50.928;7.172;2023-04-03T20:03:11;2.20;40.40
12849;DHT22;6493;50.928;7.172;2023-04-03T20:09:48;2.20;40.60
12849;DHT22;6493;50.928;7.172;2023-04-03T20:16:24;2.10;40.60
12849;DHT22;6493;50.928;7.172;2023-04-03T20:23:02;2.00;40.50
12849;DHT22;6493;50.928;7.172;2023-04-03T20:29:39;1.80;40.70
12849;DHT22;6493;50.928;7.172;2023-04-03T20:36:17;1.80;41.00
12849;DHT22;6493;50.928;7.172;2023-04-03T20:42:55;1.70;41.00
12849;DHT22;6493;50.928;7.172;2023-04-03T20:49:32;1.50;41.10
12849;DHT22;6493;50.928;7.172;2023-04-03T20:56:09;1.40;41.20
12849;DHT22;6493;50.928;7.172;2023-04-03T21:02:47;1.30;41.30
12849;DHT22;6493;50.928;7.172;2023-04-03T21:23:18;1.10;41.60
12849;DHT22;6493;50.928;7.172;2023-04-03T21:29:54;1.00;41.70
12849;DHT22;6493;50.928;7.172;2023-04-03T21:36:38;0.90;41.70
12849;DHT22;6493;50.928;7.172;2023-04-03T21:43:16;0.90;41.90
12849;DHT22;6493;50.928;7.172;2023-04-03T21:49:53;0.80;41.80
12849;DHT22;6493;50.928;7.172;2023-04-03T21:56:31;0.80;42.00
12849;DHT22;6493;50.928;7.172;2023-04-03T22:03:34;0.70;41.90
12849;DHT22;6493;50.928;7.172;2023-04-03T22:10:11;0.60;42.00
12849;DHT22;6493;50.928;7.172;2023-04-03T22:16:48;0.50;42.10
12849;DHT22;6493;50.928;7.172;2023-04-03T22:23:25;0.50;42.20
12849;DHT22;6493;50.928;7.172;2023-04-03T22:30:02;0.50;42.20
12849;DHT22;6493;50.928;7.172;2023-04-03T22:36:39;0.50;42.20
12849;DHT22;6493;50.928;7.172;2023-04-03T22:43:17;0.50;42.80
12849;DHT22;6493;50.928;7.172;2023-04-03T22:49:55;0.50;42.30
12849;DHT22;6493;50.928;7.172;2023-04-03T22:56:31;0.40;42.30
12849;DHT22;6493;50.928;7.172;2023-04-03T23:03:09;0.40;42.30
12849;DHT22;6493;50.928;7.172;2023-04-03T23:09:46;0.30;42.30
12849;DHT22;6493;50.928;7.172;2023-04-03T23:16:22;0.30;42.40
12849;DHT22;6493;50.928;7.172;2023-04-03T23:23:01;0.20;42.40
12849;DHT22;6493;50.928;7.172;2023-04-03T23:29:38;0.10;42.40
12849;DHT22;6493;50.928;7.172;2023-04-03T23:36:15;0.10;42.40
12849;DHT22;6493;50.928;7.172;2023-04-03T23:42:52;0.00;42.50
12849;DHT22;6493;50.928;7.172;2023-04-03T23:49:29;-0.10;42.50
12849;DHT22;6493;50.928;7.172;2023-04-03T23:56:05;-0.20;42.60
